sensor_id;sensor_type;location;lat;lon;timestamp;pressure;altitude;pressure_sealevel;temperature;humidity
69247;BME280;56358;56.328;43.992;2023-08-31T13:46:05;100757.84;;;22.44;40.74
69247;BME280;56358;56.328;43.992;2023-08-31T13:48:06;100753.59;;;22.56;40.64
69247;BME280;56358;56.328;43.992;2023-08-31T13:50:07;100753.03;;;22.83;39.48
69247;BME280;56358;56.328;43.992;2023-08-31T13:52:08;100742.75;;;22.85;39.57
69247;BME280;56358;56.328;43.992;2023-08-31T13:54:11;100753.88;;;23.05;39.75
69247;BME280;56358;56.328;43.992;2023-08-31T13:56:11;100745.94;;;23.10;40.01
69247;BME280;56358;56.328;43.992;2023-08-31T13:58:12;100701.03;;;22.98;40.14
69247;BME280;56358;56.328;43.992;2023-08-31T14:00:13;100748.91;;;23.58;39.36
69247;BME280;56358;56.328;43.992;2023-08-31T14:02:13;100749.16;;;23.92;38.54
69247;BME280;56358;56.328;43.992;2023-08-31T14:04:15;100735.09;;;23.95;38.45
69247;BME280;56358;56.328;43.992;2023-08-31T14:06:15;100751.63;;;24.15;38.49
69247;BME280;56358;56.328;43.992;2023-08-31T14:08:16;100775.06;;;24.31;38.24
69247;BME280;56358;56.328;43.992;2023-08-31T14:10:17;100753.56;;;24.28;38.10
69247;BME280;56358;56.328;43.992;2023-08-31T14:12:17;100758.84;;;24.30;38.15
69247;BME280;56358;56.328;43.992;2023-08-31T14:14:18;100771.22;;;24.19;37.80
69247;BME280;56358;56.328;43.992;2023-08-31T14:16:19;100754.72;;;24.05;38.09
69247;BME280;56358;56.328;43.992;2023-08-31T14:18:19;100733.06;;;23.82;38.13
69247;BME280;56358;56.328;43.992;2023-08-31T14:20:21;100689.44;;;23.39;38.43
69247;BME280;56358;56.328;43.992;2023-08-31T14:22:22;100767.31;;;23.71;38.43
69247;BME280;56358;56.328;43.992;2023-08-31T14:24:23;100701.09;;;23.26;38.64
69247;BME280;56358;56.328;43.992;2023-08-31T14:26:24;100762.69;;;23.43;38.78
69247;BME280;56358;56.328;43.992;2023-08-31T14:28:25;100772.28;;;23.33;39.71
69247;BME280;56358;56.328;43.992;2023-08-31T14:30:25;100768.81;;;23.24;39.91
69247;BME280;56358;56.328;43.992;2023-08-31T14:32:26;100764.72;;;23.13;39.37
69247;BME280;56358;56.328;43.992;2023-08-31T14:34:27;100759.97;;;23.00;40.19
69247;BME280;56358;56.328;43.992;2023-08-31T14:36:28;100759.63;;;22.88;40.39
69247;BME280;56358;56.328;43.992;2023-08-31T14:38:28;100759.00;;;22.71;40.85
69247;BME280;56358;56.328;43.992;2023-08-31T14:40:29;100763.75;;;22.63;41.18
69247;BME280;56358;56.328;43.992;2023-08-31T14:42:30;100749.56;;;22.37;40.66
69247;BME280;56358;56.328;43.992;2023-08-31T14:44:30;100767.66;;;22.38;40.76
69247;BME280;56358;56.328;43.992;2023-08-31T14:46:31;100766.59;;;22.24;40.92
69247;BME280;56358;56.328;43.992;2023-08-31T14:48:31;100774.16;;;22.22;40.97
69247;BME280;56358;56.328;43.992;2023-08-31T14:50:32;100765.78;;;22.09;41.28
69247;BME280;56358;56.328;43.992;2023-08-31T14:52:33;100775.19;;;22.06;41.53
69247;BME280;56358;56.328;43.992;2023-08-31T14:54:33;100772.72;;;21.97;41.73
69247;BME280;56358;56.328;43.992;2023-08-31T14:56:34;100777.25;;;21.89;42.41
69247;BME280;56358;56.328;43.992;2023-08-31T14:58:35;100762.72;;;21.74;42.71
69247;BME280;56358;56.328;43.992;2023-08-31T15:00:35;100774.31;;;21.76;43.05
69247;BME280;56358;56.328;43.992;2023-08-31T15:02:36;100776.09;;;21.69;43.89
69247;BME280;56358;56.328;43.992;2023-08-31T15:04:36;100774.28;;;21.61;44.11
69247;BME280;56358;56.328;43.992;2023-08-31T15:06:37;100770.94;;;21.51;44.74
69247;BME280;56358;56.328;43.992;2023-08-31T15:08:39;100758.97;;;21.37;45.46
69247;BME280;56358;56.328;43.992;2023-08-31T15:10:41;100763.94;;;21.33;45.81
69247;BME280;56358;56.328;43.992;2023-08-31T15:12:41;100780.97;;;21.35;46.96
69247;BME280;56358;56.328;43.992;2023-08-31T15:14:42;100782.59;;;21.21;48.03
69247;BME280;56358;56.328;43.992;2023-08-31T15:16:42;100782.84;;;21.12;48.79
69247;BME280;56358;56.328;43.992;2023-08-31T15:18:43;100727.63;;;20.63;49.45
69247;BME280;56358;56.328;43.992;2023-08-31T15:20:45;100775.06;;;20.77;49.22
69247;BME280;56358;56.328;43.992;2023-08-31T15:22:45;100765.81;;;20.55;49.87
69247;BME280;56358;56.328;43.992;2023-08-31T15:24:46;100770.25;;;20.48;50.07
69247;BME280;56358;56.328;43.992;2023-08-31T15:26:47;100728.41;;;20.09;49.83
69247;BME280;56358;56.328;43.992;2023-08-31T15:28:47;100780.53;;;20.29;50.01
69247;BME280;56358;56.328;43.992;2023-08-31T15:30:48;100786.03;;;20.21;50.21
69247;BME280;56358;56.328;43.992;2023-08-31T15:32:48;100777.06;;;20.12;50.61
69247;BME280;56358;56.328;43.992;2023-08-31T15:34:49;100778.75;;;20.05;50.73
69247;BME280;56358;56.328;43.992;2023-08-31T15:36:49;100792.06;;;19.91;51.45
69247;BME280;56358;56.328;43.992;2023-08-31T15:38:50;100779.81;;;19.79;52.07
69247;BME280;56358;56.328;43.992;2023-08-31T15:40:50;100780.69;;;19.63;52.58
69247;BME280;56358;56.328;43.992;2023-08-31T15:42:51;100772.56;;;19.47;52.98
69247;BME280;56358;56.328;43.992;2023-08-31T15:44:52;100785.97;;;19.48;53.43
69247;BME280;56358;56.328;43.992;2023-08-31T15:46:52;100724.81;;;19.03;53.43
69247;BME280;56358;56.328;43.992;2023-08-31T15:48:53;100784.78;;;19.26;54.22
69247;BME280;56358;56.328;43.992;2023-08-31T15:50:54;100790.91;;;19.20;54.68
69247;BME280;56358;56.328;43.992;2023-08-31T15:52:55;100787.31;;;19.11;54.58
69247;BME280;56358;56.328;43.992;2023-08-31T15:54:59;100799.38;;;19.08;54.90
69247;BME280;56358;56.328;43.992;2023-08-31T15:56:59;100800.38;;;18.99;55.57
69247;BME280;56358;56.328;43.992;2023-08-31T15:59:00;100729.97;;;18.55;56.03
69247;BME280;56358;56.328;43.992;2023-08-31T16:01:01;100796.75;;;18.82;56.00
69247;BME280;56358;56.328;43.992;2023-08-31T16:03:01;100684.91;;;18.11;56.57
69247;BME280;56358;56.328;43.992;2023-08-31T16:05:05;100775.66;;;18.59;57.17
69247;BME280;56358;56.328;43.992;2023-08-31T16:07:06;100784.44;;;18.53;56.95
69247;BME280;56358;56.328;43.992;2023-08-31T16:09:07;100749.38;;;18.25;56.90
69247;BME280;56358;56.328;43.992;2023-08-31T16:11:10;100800.19;;;18.50;57.24
69247;BME280;56358;56.328;43.992;2023-08-31T16:13:11;100796.28;;;18.44;57.38
69247;BME280;56358;56.328;43.992;2023-08-31T16:15:11;100743.84;;;18.01;57.32
69247;BME280;56358;56.328;43.992;2023-08-31T16:17:12;100794.88;;;18.32;57.19
69247;BME280;56358;56.328;43.992;2023-08-31T16:19:12;100803.34;;;18.29;57.53
69247;BME280;56358;56.328;43.992;2023-08-31T16:21:13;100797.84;;;18.20;57.76
69247;BME280;56358;56.328;43.992;2023-08-31T16:23:13;100813.09;;;18.13;57.92
69247;BME280;56358;56.328;43.992;2023-08-31T16:25:14;100777.91;;;17.95;58.38
69247;BME280;56358;56.328;43.992;2023-08-31T16:27:18;100802.66;;;18.00;58.54
69247;BME280;56358;56.328;43.992;2023-08-31T16:29:18;100802.47;;;17.93;58.61
69247;BME280;56358;56.328;43.992;2023-08-31T16:31:18;100783.69;;;17.74;58.47
69247;BME280;56358;56.328;43.992;2023-08-31T16:33:19;100806.25;;;17.83;58.62
69247;BME280;56358;56.328;43.992;2023-08-31T16:35:20;100815.88;;;17.77;59.06
69247;BME280;56358;56.328;43.992;2023-08-31T16:37:21;100809.09;;;17.73;59.81
69247;BME280;56358;56.328;43.992;2023-08-31T16:39:22;100808.03;;;17.66;59.34
69247;BME280;56358;56.328;43.992;2023-08-31T16:41:23;100816.31;;;17.64;59.52
69247;BME280;56358;56.328;43.992;2023-08-31T16:43:24;100815.78;;;17.61;59.88
69247;BME280;56358;56.328;43.992;2023-08-31T16:45:25;100814.22;;;17.58;60.04
69247;BME280;56358;56.328;43.992;2023-08-31T16:47:26;100807.03;;;17.49;59.78
69247;BME280;56358;56.328;43.992;2023-08-31T16:49:27;100811.28;;;17.51;60.55
69247;BME280;56358;56.328;43.992;2023-08-31T16:51:27;100807.88;;;17.49;60.42
69247;BME280;56358;56.328;43.992;2023-08-31T16:53:28;100808.19;;;17.46;60.60
69247;BME280;56358;56.328;43.992;2023-08-31T16:55:29;100805.25;;;17.39;60.53
69247;BME280;56358;56.328;43.992;2023-08-31T16:57:29;100800.44;;;17.33;60.56
69247;BME280;56358;56.328;43.992;2023-08-31T16:59:30;100748.00;;;16.98;60.63
69247;BME280;56358;56.328;43.992;2023-08-31T17:01:32;100773.53;;;17.14;60.81
69247;BME280;56358;56.328;43.992;2023-08-31T17:03:32;100762.69;;;16.96;60.96
69247;BME280;56358;56.328;43.992;2023-08-31T17:05:33;100808.34;;;17.26;60.90
69247;BME280;56358;56.328;43.992;2023-08-31T17:07:34;100814.97;;;17.24;60.85
69247;BME280;56358;56.328;43.992;2023-08-31T17:09:34;100775.94;;;16.99;60.41
69247;BME280;56358;56.328;43.992;2023-08-31T17:11:35;100818.28;;;17.18;60.87
69247;BME280;56358;56.328;43.992;2023-08-31T17:13:36;100814.56;;;17.19;61.06
69247;BME280;56358;56.328;43.992;2023-08-31T17:15:36;100821.00;;;17.18;60.86
69247;BME280;56358;56.328;43.992;2023-08-31T17:17:37;100827.19;;;17.10;60.62
69247;BME280;56358;56.328;43.992;2023-08-31T17:19:37;100821.31;;;17.15;60.46
69247;BME280;56358;56.328;43.992;2023-08-31T17:21:38;100807.06;;;16.95;61.03
69247;BME280;56358;56.328;43.992;2023-08-31T17:23:39;100837.16;;;17.09;61.61
69247;BME280;56358;56.328;43.992;2023-08-31T17:25:39;100831.03;;;17.07;61.15
69247;BME280;56358;56.328;43.992;2023-08-31T17:27:40;100810.28;;;16.98;61.23
69247;BME280;56358;56.328;43.992;2023-08-31T17:29:40;100753.81;;;16.57;61.56
69247;BME280;56358;56.328;43.992;2023-08-31T17:31:41;100833.34;;;17.02;61.24
69247;BME280;56358;56.328;43.992;2023-08-31T17:33:42;100753.13;;;16.55;61.64
69247;BME280;56358;56.328;43.992;2023-08-31T17:35:43;100822.00;;;16.99;62.47
69247;BME280;56358;56.328;43.992;2023-08-31T17:37:43;100820.03;;;16.91;62.78
69247;BME280;56358;56.328;43.992;2023-08-31T17:39:44;100824.47;;;16.92;62.47
69247;BME280;56358;56.328;43.992;2023-08-31T17:41:45;100824.88;;;16.87;63.33
69247;BME280;56358;56.328;43.992;2023-08-31T17:43:46;100830.03;;;16.81;63.24
69247;BME280;56358;56.328;43.992;2023-08-31T17:45:47;100836.63;;;16.78;63.80
69247;BME280;56358;56.328;43.992;2023-08-31T17:47:47;100828.81;;;16.75;63.53
69247;BME280;56358;56.328;43.992;2023-08-31T17:49:48;100830.94;;;16.71;63.85
69247;BME280;56358;56.328;43.992;2023-08-31T17:51:48;100774.19;;;16.34;64.00
69247;BME280;56358;56.328;43.992;2023-08-31T17:53:49;100828.16;;;16.63;64.62
69247;BME280;56358;56.328;43.992;2023-08-31T17:55:50;100831.31;;;16.58;64.49
69247;BME280;56358;56.328;43.992;2023-08-31T17:57:51;100824.34;;;16.56;64.94
69247;BME280;56358;56.328;43.992;2023-08-31T17:59:51;100836.03;;;16.56;64.76
69247;BME280;56358;56.328;43.992;2023-08-31T18:01:52;100832.63;;;16.54;64.84
69247;BME280;56358;56.328;43.992;2023-08-31T18:03:53;100821.81;;;16.54;64.71
69247;BME280;56358;56.328;43.992;2023-08-31T18:05:53;100817.97;;;16.47;64.29
69247;BME280;56358;56.328;43.992;2023-08-31T18:07:56;100814.84;;;16.42;64.79
69247;BME280;56358;56.328;43.992;2023-08-31T18:09:56;100821.69;;;16.46;64.39
69247;BME280;56358;56.328;43.992;2023-08-31T18:11:57;100825.00;;;16.40;64.17
69247;BME280;56358;56.328;43.992;2023-08-31T18:13:57;100827.09;;;16.46;64.56
69247;BME280;56358;56.328;43.992;2023-08-31T18:15:58;100829.78;;;16.46;64.68
69247;BME280;56358;56.328;43.992;2023-08-31T18:17:59;100763.59;;;16.13;64.30
69247;BME280;56358;56.328;43.992;2023-08-31T18:19:59;100800.53;;;16.32;64.48
69247;BME280;56358;56.328;43.992;2023-08-31T18:22:00;100764.88;;;16.08;64.72
69247;BME280;56358;56.328;43.992;2023-08-31T18:24:01;100759.38;;;16.00;64.79
69247;BME280;56358;56.328;43.992;2023-08-31T18:26:02;100823.28;;;16.39;64.80
69247;BME280;56358;56.328;43.992;2023-08-31T18:28:04;100824.28;;;16.38;64.72
69247;BME280;56358;56.328;43.992;2023-08-31T18:30:05;100825.59;;;16.34;64.71
69247;BME280;56358;56.328;43.992;2023-08-31T18:32:06;100817.06;;;16.29;64.67
69247;BME280;56358;56.328;43.992;2023-08-31T18:34:07;100821.31;;;16.31;64.30
69247;BME280;56358;56.328;43.992;2023-08-31T18:36:08;100773.34;;;15.96;64.02
69247;BME280;56358;56.328;43.992;2023-08-31T18:38:09;100824.34;;;16.28;64.11
69247;BME280;56358;56.328;43.992;2023-08-31T18:40:09;100830.31;;;16.32;64.16
69247;BME280;56358;56.328;43.992;2023-08-31T18:42:12;100818.06;;;16.28;63.90
69247;BME280;56358;56.328;43.992;2023-08-31T18:44:12;100814.25;;;16.20;64.03
69247;BME280;56358;56.328;43.992;2023-08-31T18:46:14;100827.03;;;16.28;63.52
69247;BME280;56358;56.328;43.992;2023-08-31T18:48:15;100825.31;;;16.27;63.53
69247;BME280;56358;56.328;43.992;2023-08-31T18:50:16;100828.03;;;16.27;63.47
69247;BME280;56358;56.328;43.992;2023-08-31T18:52:20;100819.22;;;16.25;63.28
69247;BME280;56358;56.328;43.992;2023-08-31T18:54:20;100826.47;;;16.24;63.37
69247;BME280;56358;56.328;43.992;2023-08-31T18:56:21;100822.09;;;16.23;63.18
69247;BME280;56358;56.328;43.992;2023-08-31T18:58:22;100827.50;;;16.23;63.05
69247;BME280;56358;56.328;43.992;2023-08-31T19:00:23;100817.41;;;16.16;63.24
69247;BME280;56358;56.328;43.992;2023-08-31T19:02:23;100826.78;;;16.21;62.82
69247;BME280;56358;56.328;43.992;2023-08-31T19:04:24;100828.63;;;16.21;63.03
69247;BME280;56358;56.328;43.992;2023-08-31T19:06:24;100828.75;;;16.19;63.14
69247;BME280;56358;56.328;43.992;2023-08-31T19:08:27;100825.06;;;16.20;63.28
69247;BME280;56358;56.328;43.992;2023-08-31T19:10:27;100821.94;;;16.15;63.13
69247;BME280;56358;56.328;43.992;2023-08-31T19:12:28;100822.81;;;16.16;63.16
69247;BME280;56358;56.328;43.992;2023-08-31T19:14:28;100831.34;;;16.21;62.77
69247;BME280;56358;56.328;43.992;2023-08-31T19:16:29;100832.19;;;16.21;62.88
69247;BME280;56358;56.328;43.992;2023-08-31T19:18:32;100838.44;;;16.22;62.95
69247;BME280;56358;56.328;43.992;2023-08-31T19:20:33;100827.94;;;16.19;62.48
69247;BME280;56358;56.328;43.992;2023-08-31T19:22:35;100824.38;;;16.18;62.28
69247;BME280;56358;56.328;43.992;2023-08-31T19:24:35;100825.69;;;16.14;62.23
69247;BME280;56358;56.328;43.992;2023-08-31T19:26:36;100825.38;;;16.17;62.01
69247;BME280;56358;56.328;43.992;2023-08-31T19:28:40;100834.47;;;16.16;62.11
69247;BME280;56358;56.328;43.992;2023-08-31T19:30:41;100824.53;;;16.17;61.90
69247;BME280;56358;56.328;43.992;2023-08-31T19:32:41;100834.78;;;16.13;62.49
69247;BME280;56358;56.328;43.992;2023-08-31T19:34:43;100825.78;;;16.13;62.37
69247;BME280;56358;56.328;43.992;2023-08-31T19:36:44;100835.94;;;16.11;63.05
69247;BME280;56358;56.328;43.992;2023-08-31T19:38:44;100826.56;;;16.05;62.63
69247;BME280;56358;56.328;43.992;2023-08-31T19:40:45;100830.09;;;16.05;62.78
69247;BME280;56358;56.328;43.992;2023-08-31T19:42:47;100819.88;;;15.99;62.47
69247;BME280;56358;56.328;43.992;2023-08-31T19:44:48;100834.66;;;16.05;63.49
69247;BME280;56358;56.328;43.992;2023-08-31T19:46:48;100834.25;;;16.00;63.43
69247;BME280;56358;56.328;43.992;2023-08-31T19:48:49;100827.28;;;15.97;64.11
69247;BME280;56358;56.328;43.992;2023-08-31T19:50:49;100839.09;;;15.96;64.16
69247;BME280;56358;56.328;43.992;2023-08-31T19:52:52;100828.59;;;15.83;64.20
69247;BME280;56358;56.328;43.992;2023-08-31T19:54:52;100778.41;;;15.51;64.21
69247;BME280;56358;56.328;43.992;2023-08-31T19:56:53;100844.94;;;15.91;64.73
69247;BME280;56358;56.328;43.992;2023-08-31T19:58:54;100837.81;;;15.90;64.86
69247;BME280;56358;56.328;43.992;2023-08-31T20:00:59;100830.72;;;15.80;64.98
69247;BME280;56358;56.328;43.992;2023-08-31T20:02:59;100846.50;;;15.84;65.08
69247;BME280;56358;56.328;43.992;2023-08-31T20:05:00;100851.22;;;15.82;65.24
69247;BME280;56358;56.328;43.992;2023-08-31T20:07:00;100830.00;;;15.68;65.13
69247;BME280;56358;56.328;43.992;2023-08-31T20:09:01;100843.06;;;15.72;65.32
69247;BME280;56358;56.328;43.992;2023-08-31T20:11:01;100835.41;;;15.68;65.86
69247;BME280;56358;56.328;43.992;2023-08-31T20:13:03;100839.09;;;15.67;65.27
69247;BME280;56358;56.328;43.992;2023-08-31T20:15:04;100762.50;;;15.19;65.26
69247;BME280;56358;56.328;43.992;2023-08-31T20:17:05;100785.94;;;15.28;66.01
69247;BME280;56358;56.328;43.992;2023-08-31T20:19:05;100847.09;;;15.58;65.78
69247;BME280;56358;56.328;43.992;2023-08-31T20:21:06;100836.28;;;15.58;66.01
69247;BME280;56358;56.328;43.992;2023-08-31T20:23:06;100838.25;;;15.56;65.93
69247;BME280;56358;56.328;43.992;2023-08-31T20:25:08;100770.06;;;15.15;66.08
69247;BME280;56358;56.328;43.992;2023-08-31T20:27:09;100831.16;;;15.55;66.33
69247;BME280;56358;56.328;43.992;2023-08-31T20:29:09;100839.28;;;15.55;66.32
69247;BME280;56358;56.328;43.992;2023-08-31T20:31:10;100839.28;;;15.55;66.77
69247;BME280;56358;56.328;43.992;2023-08-31T20:33:12;100861.03;;;15.54;66.72
69247;BME280;56358;56.328;43.992;2023-08-31T20:35:13;100842.25;;;15.52;66.61
69247;BME280;56358;56.328;43.992;2023-08-31T20:37:13;100851.22;;;15.53;66.86
69247;BME280;56358;56.328;43.992;2023-08-31T20:39:14;100835.28;;;15.40;66.77
69247;BME280;56358;56.328;43.992;2023-08-31T20:41:15;100791.22;;;15.10;67.03
69247;BME280;56358;56.328;43.992;2023-08-31T20:43:16;100861.16;;;15.42;67.03
69247;BME280;56358;56.328;43.992;2023-08-31T20:45:17;100846.53;;;15.35;67.40
69247;BME280;56358;56.328;43.992;2023-08-31T20:47:18;100842.53;;;15.30;67.42
69247;BME280;56358;56.328;43.992;2023-08-31T20:49:19;100785.66;;;14.92;67.41
69247;BME280;56358;56.328;43.992;2023-08-31T20:51:20;100792.78;;;14.93;67.57
69247;BME280;56358;56.328;43.992;2023-08-31T20:53:21;100843.81;;;15.25;67.75
69247;BME280;56358;56.328;43.992;2023-08-31T20:55:25;100847.53;;;15.24;67.57
69247;BME280;56358;56.328;43.992;2023-08-31T20:57:25;100845.38;;;15.18;68.05
69247;BME280;56358;56.328;43.992;2023-08-31T20:59:26;100792.31;;;14.78;68.11
69247;BME280;56358;56.328;43.992;2023-08-31T21:01:26;100798.03;;;14.85;68.00
69247;BME280;56358;56.328;43.992;2023-08-31T21:03:27;100866.41;;;15.15;68.84
69247;BME280;56358;56.328;43.992;2023-08-31T21:05:29;100856.72;;;15.12;68.49
69247;BME280;56358;56.328;43.992;2023-08-31T21:07:30;100857.75;;;15.11;68.61
69247;BME280;56358;56.328;43.992;2023-08-31T21:09:30;100850.34;;;15.03;68.61
69247;BME280;56358;56.328;43.992;2023-08-31T21:11:31;100864.44;;;15.07;68.31
69247;BME280;56358;56.328;43.992;2023-08-31T21:13:32;100853.75;;;15.05;68.97
69247;BME280;56358;56.328;43.992;2023-08-31T21:15:38;100849.06;;;14.98;69.00
69247;BME280;56358;56.328;43.992;2023-08-31T21:17:38;100857.84;;;15.00;69.33
69247;BME280;56358;56.328;43.992;2023-08-31T21:19:39;100858.97;;;14.97;69.88
69247;BME280;56358;56.328;43.992;2023-08-31T21:21:40;100845.34;;;14.89;69.72
69247;BME280;56358;56.328;43.992;2023-08-31T21:23:40;100817.13;;;14.62;70.37
69247;BME280;56358;56.328;43.992;2023-08-31T21:25:42;100855.28;;;14.88;70.46
69247;BME280;56358;56.328;43.992;2023-08-31T21:27:43;100801.75;;;14.53;70.61
69247;BME280;56358;56.328;43.992;2023-08-31T21:29:43;100857.25;;;14.86;70.38
69247;BME280;56358;56.328;43.992;2023-08-31T21:31:44;100802.63;;;14.53;70.50
69247;BME280;56358;56.328;43.992;2023-08-31T21:33:44;100853.00;;;14.84;70.30
69247;BME280;56358;56.328;43.992;2023-08-31T21:35:45;100863.94;;;14.82;70.76
69247;BME280;56358;56.328;43.992;2023-08-31T21:37:45;100829.66;;;14.63;70.83
69247;BME280;56358;56.328;43.992;2023-08-31T21:39:46;100787.94;;;14.36;70.61
69247;BME280;56358;56.328;43.992;2023-08-31T21:41:47;100860.78;;;14.77;70.64
69247;BME280;56358;56.328;43.992;2023-08-31T21:43:48;100855.53;;;14.75;70.27
69247;BME280;56358;56.328;43.992;2023-08-31T21:45:48;100853.81;;;14.74;70.56
69247;BME280;56358;56.328;43.992;2023-08-31T21:47:50;100860.63;;;14.69;70.71
69247;BME280;56358;56.328;43.992;2023-08-31T21:49:50;100865.19;;;14.68;71.37
69247;BME280;56358;56.328;43.992;2023-08-31T21:51:51;100858.22;;;14.66;71.13
69247;BME280;56358;56.328;43.992;2023-08-31T21:53:51;100839.38;;;14.54;70.84
69247;BME280;56358;56.328;43.992;2023-08-31T21:55:52;100857.34;;;14.65;70.96
69247;BME280;56358;56.328;43.992;2023-08-31T21:57:53;100859.34;;;14.63;71.55
69247;BME280;56358;56.328;43.992;2023-08-31T21:59:53;100847.03;;;14.49;71.42
69247;BME280;56358;56.328;43.992;2023-08-31T22:01:54;100864.09;;;14.59;71.64
69247;BME280;56358;56.328;43.992;2023-08-31T22:03:55;100879.59;;;14.57;71.85
69247;BME280;56358;56.328;43.992;2023-08-31T22:06:04;100838.19;;;14.37;72.09
69247;BME280;56358;56.328;43.992;2023-08-31T22:08:05;100872.75;;;14.53;72.32
69247;BME280;56358;56.328;43.992;2023-08-31T22:10:06;100860.19;;;14.42;71.94
69247;BME280;56358;56.328;43.992;2023-08-31T22:12:07;100870.31;;;14.50;72.36
69247;BME280;56358;56.328;43.992;2023-08-31T22:14:07;100810.28;;;14.17;72.18
69247;BME280;56358;56.328;43.992;2023-08-31T22:16:08;100842.72;;;14.37;71.98
69247;BME280;56358;56.328;43.992;2023-08-31T22:18:09;100788.03;;;13.94;72.28
69247;BME280;56358;56.328;43.992;2023-08-31T22:20:10;100869.03;;;14.45;72.54
69247;BME280;56358;56.328;43.992;2023-08-31T22:22:13;100789.88;;;13.94;72.58
69247;BME280;56358;56.328;43.992;2023-08-31T22:24:13;100874.84;;;14.40;73.11
69247;BME280;56358;56.328;43.992;2023-08-31T22:26:14;100863.59;;;14.35;72.79
69247;BME280;56358;56.328;43.992;2023-08-31T22:28:15;100884.16;;;14.36;72.86
69247;BME280;56358;56.328;43.992;2023-08-31T22:30:15;100863.59;;;14.35;73.37
69247;BME280;56358;56.328;43.992;2023-08-31T22:32:16;100867.41;;;14.32;73.76
69247;BME280;56358;56.328;43.992;2023-08-31T22:34:16;100803.88;;;13.87;73.83
69247;BME280;56358;56.328;43.992;2023-08-31T22:36:17;100872.50;;;14.25;74.08
69247;BME280;56358;56.328;43.992;2023-08-31T22:38:17;100877.88;;;14.25;74.51
69247;BME280;56358;56.328;43.992;2023-08-31T22:40:18;100876.31;;;14.23;75.06
69247;BME280;56358;56.328;43.992;2023-08-31T22:42:19;100793.97;;;13.67;74.57
69247;BME280;56358;56.328;43.992;2023-08-31T22:44:20;100882.09;;;14.18;75.26
69247;BME280;56358;56.328;43.992;2023-08-31T22:46:20;100878.69;;;14.16;75.00
69247;BME280;56358;56.328;43.992;2023-08-31T22:48:21;100879.53;;;14.17;75.20
69247;BME280;56358;56.328;43.992;2023-08-31T22:50:22;100853.19;;;13.99;75.46
69247;BME280;56358;56.328;43.992;2023-08-31T22:52:22;100814.28;;;13.71;75.98
69247;BME280;56358;56.328;43.992;2023-08-31T22:54:23;100886.03;;;14.14;75.97
69247;BME280;56358;56.328;43.992;2023-08-31T22:56:23;100886.03;;;14.14;76.11
69247;BME280;56358;56.328;43.992;2023-08-31T22:58:26;100880.31;;;14.07;76.39
69247;BME280;56358;56.328;43.992;2023-08-31T23:00:27;100815.41;;;13.68;77.01
69247;BME280;56358;56.328;43.992;2023-08-31T23:02:27;100833.75;;;13.74;76.28
69247;BME280;56358;56.328;43.992;2023-08-31T23:04:28;100821.91;;;13.66;76.98
69247;BME280;56358;56.328;43.992;2023-08-31T23:06:29;100898.06;;;14.10;77.00
69247;BME280;56358;56.328;43.992;2023-08-31T23:08:29;100901.75;;;14.09;77.23
69247;BME280;56358;56.328;43.992;2023-08-31T23:10:30;100896.50;;;14.07;76.93
69247;BME280;56358;56.328;43.992;2023-08-31T23:12:30;100821.19;;;13.64;77.33
69247;BME280;56358;56.328;43.992;2023-08-31T23:14:31;100895.78;;;14.05;76.98
69247;BME280;56358;56.328;43.992;2023-08-31T23:16:32;100880.00;;;14.01;77.22
69247;BME280;56358;56.328;43.992;2023-08-31T23:18:33;100889.66;;;14.03;77.23
69247;BME280;56358;56.328;43.992;2023-08-31T23:20:33;100882.63;;;13.91;77.07
69247;BME280;56358;56.328;43.992;2023-08-31T23:22:34;100899.88;;;14.00;76.93
69247;BME280;56358;56.328;43.992;2023-08-31T23:24:34;100892.16;;;13.95;76.69
69247;BME280;56358;56.328;43.992;2023-08-31T23:26:35;100824.81;;;13.53;76.89
69247;BME280;56358;56.328;43.992;2023-08-31T23:28:36;100817.50;;;13.44;77.02
69247;BME280;56358;56.328;43.992;2023-08-31T23:30:37;100905.78;;;13.94;77.19
69247;BME280;56358;56.328;43.992;2023-08-31T23:32:37;100776.31;;;13.20;76.90
69247;BME280;56358;56.328;43.992;2023-08-31T23:34:38;100775.00;;;13.15;77.65
69247;BME280;56358;56.328;43.992;2023-08-31T23:36:38;100909.59;;;13.91;77.78
69247;BME280;56358;56.328;43.992;2023-08-31T23:38:39;100853.44;;;13.54;77.91
69247;BME280;56358;56.328;43.992;2023-08-31T23:40:41;100778.81;;;13.12;78.44
69247;BME280;56358;56.328;43.992;2023-08-31T23:42:42;100912.56;;;13.88;78.20
69247;BME280;56358;56.328;43.992;2023-08-31T23:44:44;100926.88;;;13.88;78.35
69247;BME280;56358;56.328;43.992;2023-08-31T23:46:44;100913.66;;;13.85;78.70
69247;BME280;56358;56.328;43.992;2023-08-31T23:48:46;100918.94;;;13.87;78.99
69247;BME280;56358;56.328;43.992;2023-08-31T23:50:46;100923.47;;;13.86;79.41
69247;BME280;56358;56.328;43.992;2023-08-31T23:52:47;100928.13;;;13.84;78.94
69247;BME280;56358;56.328;43.992;2023-08-31T23:54:47;100923.47;;;13.86;79.30
69247;BME280;56358;56.328;43.992;2023-08-31T23:56:48;100920.03;;;13.84;80.18
69247;BME280;56358;56.328;43.992;2023-08-31T23:58:48;100941.47;;;13.86;80.64
